Time;durP1;ratioP1;P1;durP2;ratioP2;P2;SDS_P1;SDS_P2;PMS_P1;PMS_P2;Temp;Humidity;BMP_temperature;BMP_pressure;BME280_temperature;BME280_humidity;BME280_pressure;Samples;Min_cycle;Max_cycle;Signal;HPM_P1;HPM_P2
2022/11/27 00:01:00;;;;;;;;;;;;;;;;;;;;;
2022/11/27 00:03:58;;;;;;;;;;;;;;;;;;;;;
2022/11/27 00:06:33;;;;;;;12.23;5.43;;;0.40;99.90;;;;;;4960433;29;20164;-91
2022/11/27 00:09:08;;;;;;;5.30;4.03;;;0.40;99.90;;;;;;4956346;29;20196;-91
2022/11/27 00:11:34;;;;;;;9.97;4.93;;;;;;;;;;4953641;29;20210;-91
2022/11/27 00:14:03;;;;;;;12.50;6.57;;;0.40;99.90;;;;;;4958979;29;20596;-91
2022/11/27 00:16:40;;;;;;;18.67;7.77;;;0.40;99.90;;;;;;4937666;29;20652;-90
2022/11/27 00:19:36;;;;;;;;;;;;;;;;;;;;;
2022/11/27 00:22:29;;;;;;;;;;;;;;;;;;;;;
2022/11/27 00:25:12;;;;;;;15.77;6.77;;;0.40;99.90;;;;;;4962201;29;20225;-91
2022/11/27 00:27:43;;;;;;;20.37;9.83;;;0.30;99.90;;;;;;4952893;29;20221;-90
2022/11/27 00:30:12;;;;;;;18.47;7.40;;;0.30;99.90;;;;;;4941531;29;20191;-90
2022/11/27 00:32:48;;;;;;;18.03;7.10;;;;;;;;;;4952859;29;20226;-91
2022/11/27 00:35:14;;;;;;;11.87;6.87;;;;;;;;;;4942711;29;20230;-91
2022/11/27 00:38:37;;;;;;;;;;;;;;;;;;;;;
2022/11/27 00:40:55;;;;;;;9.13;4.60;;;;;;;;;;4951037;29;20199;-91
2022/11/27 00:43:21;;;;;;;8.63;5.03;;;;;;;;;;4950084;29;20183;-90
2022/11/27 00:46:01;;;;;;;3.60;3.30;;;0.40;99.90;;;;;;4956899;29;20274;-91
2022/11/27 00:48:30;;;;;;;16.03;7.73;;;0.40;99.90;;;;;;4936634;29;20655;-90
2022/11/27 00:51:23;;;;;;;15.03;5.03;;;0.40;99.90;;;;;;4956889;29;20306;-90
2022/11/27 00:54:02;;;;;;;10.33;5.83;;;0.40;99.90;;;;;;4954211;29;20191;-91
2022/11/27 00:56:30;;;;;;;11.90;7.67;;;0.40;99.90;;;;;;4950910;29;20217;-91
2022/11/27 00:59:24;;;;;;;11.13;4.53;;;0.40;99.90;;;;;;4956573;29;20235;-92
2022/11/27 01:01:57;;;;;;;17.13;4.37;;;;;;;;;;4938277;29;20193;-90
2022/11/27 01:04:29;;;;;;;12.10;5.70;;;;;;;;;;4950394;29;20190;-91
2022/11/27 01:06:55;;;;;;;9.30;5.13;;;;;;;;;;4956828;29;20183;-90
2022/11/27 01:09:34;;;;;;;5.90;4.93;;;0.40;99.90;;;;;;4949754;29;20176;-89
2022/11/27 01:12:00;;;;;;;3.90;2.73;;;;;;;;;;4956430;29;20269;-90
2022/11/27 01:14:43;;;;;;;9.67;4.97;;;0.40;99.90;;;;;;4950198;29;20206;-92
2022/11/27 01:17:09;;;;;;;11.20;4.97;;;;;;;;;;4955933;28;20253;-91
2022/11/27 01:19:37;;;;;;;5.27;3.57;;;;;;;;;;4951392;29;20207;-91
2022/11/27 01:22:03;;;;;;;14.93;7.47;;;;;;;;;;4956447;29;20183;-90
2022/11/27 01:24:32;;;;;;;4.97;3.93;;;0.40;99.90;;;;;;4950767;29;20183;-90
2022/11/27 01:27:00;;;;;;;14.33;6.73;;;;;;;;;;4956079;29;20205;-91
2022/11/27 01:29:26;;;;;;;16.67;8.10;;;;;;;;;;4950103;29;20543;-91
2022/11/27 01:31:56;;;;;;;13.13;4.67;;;0.30;99.90;;;;;;4956010;29;20214;-91
2022/11/27 01:34:25;;;;;;;14.00;5.30;;;;;;;;;;4949688;29;20197;-91
2022/11/27 01:36:53;;;;;;;17.80;7.90;;;;;;;;;;4956282;29;20239;-91
2022/11/27 01:39:22;;;;;;;6.80;4.57;;;0.30;99.90;;;;;;4949090;29;20183;-92
2022/11/27 01:41:56;;;;;;;12.83;4.90;;;0.30;99.90;;;;;;4956194;29;20660;-91
2022/11/27 01:44:32;;;;;;;12.30;4.50;;;0.30;99.90;;;;;;4949322;29;20234;-91
2022/11/27 01:47:17;;;;;;;15.23;5.93;;;0.30;99.90;;;;;;4956155;29;20183;-90
2022/11/27 01:49:53;;;;;;;27.50;9.40;;;0.20;99.90;;;;;;4952300;29;20701;-90
2022/11/27 01:52:26;;;;;;;17.90;8.10;;;0.20;99.90;;;;;;4948727;29;20293;-91
2022/11/27 01:55:10;;;;;;;7.20;5.37;;;0.20;99.90;;;;;;4955957;29;20202;-91
2022/11/27 01:57:44;;;;;;;15.23;5.57;;;0.20;99.90;;;;;;4953174;28;21088;-92
2022/11/27 02:00:32;;;;;;;16.57;8.03;;;0.20;99.90;;;;;;4959154;28;20174;-92
2022/11/27 02:03:18;;;;;;;35.27;8.00;;;0.20;99.90;;;;;;4959117;28;20210;-92
2022/11/27 02:05:47;;;;;;;27.17;11.37;;;;;;;;;;4959193;28;20209;-91
2022/11/27 02:08:20;;;;;;;5.90;4.47;;;0.20;99.90;;;;;;4958725;28;20186;-91
2022/11/27 02:11:35;;;;;;;33.23;8.17;;;0.10;99.90;;;;;;4942902;28;20226;-91
2022/11/27 02:14:03;;;;;;;2.63;2.50;;;;;;;;;;4906482;28;20685;-91
2022/11/27 02:17:01;;;;;;;9.93;5.23;;;0.20;99.90;;;;;;4958447;28;20214;-90
2022/11/27 02:20:04;;;;;;;6.53;3.57;;;0.10;99.90;;;;;;4958258;28;20178;-92
2022/11/27 02:22:33;;;;;;;7.77;5.13;;;;;;;;;;4958883;28;20193;-92
2022/11/27 02:25:29;;;;;;;11.80;5.83;;;0.20;99.90;;;;;;4959009;28;20234;-93
2022/11/27 02:28:21;;;;;;;11.43;4.80;;;0.20;99.90;;;;;;4957307;28;20237;-91
2022/11/27 02:30:55;;;;;;;8.77;4.17;;;0.20;99.90;;;;;;4958565;28;20205;-92
2022/11/27 02:33:29;;;;;;;18.83;7.53;;;;;;;;;;4958210;28;20193;-92
2022/11/27 02:36:19;;;;;;;7.93;5.00;;;0.20;99.90;;;;;;4958727;28;20201;-91
2022/11/27 02:39:13;;;;;;;10.37;4.60;;;0.20;99.90;;;;;;4957736;28;20179;-92
2022/11/27 02:42:28;;;;;;;10.90;3.03;;;0.20;99.90;;;;;;4958212;28;20702;-91
2022/11/27 02:45:00;;;;;;;19.50;7.30;;;0.30;99.90;;;;;;4958390;28;20214;-91
2022/11/27 02:47:40;;;;;;;13.57;6.27;;;0.20;99.90;;;;;;4957930;28;20190;-92
2022/11/27 02:50:18;;;;;;;15.57;5.77;;;0.30;99.90;;;;;;4959006;28;20185;-91
2022/11/27 02:52:57;;;;;;;6.80;4.37;;;0.30;99.90;;;;;;4975044;28;20182;-91
2022/11/27 02:55:33;;;;;;;10.37;6.20;;;0.30;99.90;;;;;;4958186;28;20202;-91
2022/11/27 02:58:15;;;;;;;16.23;5.93;;;0.30;99.90;;;;;;4975396;28;20260;-91
2022/11/27 03:01:07;;;;;;;5.67;3.97;;;0.20;99.90;;;;;;4958043;28;20628;-92
2022/11/27 03:03:40;;;;;;;10.73;4.47;;;0.30;99.90;;;;;;4957894;28;20182;-92
2022/11/27 03:06:41;;;;;;;8.67;3.83;;;0.30;99.90;;;;;;4958038;28;20186;-92
2022/11/27 03:09:25;;;;;;;;;;;;;;;;;;;;;
2022/11/27 03:12:13;;;;;;;12.90;6.30;;;0.30;99.90;;;;;;4975105;28;20215;-91
2022/11/27 03:14:46;;;;;;;18.70;5.53;;;0.40;99.90;;;;;;4957599;28;20230;-92
2022/11/27 03:18:03;;;;;;;7.63;3.87;;;0.40;99.90;;;;;;4957949;28;20233;-92
2022/11/27 03:20:59;;;;;;;;;;;;;;;;;;;;;
2022/11/27 03:23:35;;;;;;;7.17;4.77;;;0.40;99.90;;;;;;4974978;28;20193;-90
2022/11/27 03:26:14;;;;;;;;;;;;;;;;;;;;;
2022/11/27 03:28:56;;;;;;;8.10;4.57;;;0.30;99.90;;;;;;4975269;28;20175;-91
2022/11/27 03:31:40;;;;;;;7.23;3.13;;;0.40;99.90;;;;;;4957797;28;20202;-91
2022/11/27 03:34:16;;;;;;;;;;;;;;;;;;;;;
2022/11/27 03:36:45;;;;;;;6.60;3.40;;;;;;;;;;4975058;28;20520;-92
2022/11/27 03:39:25;;;;;;;9.77;5.20;;;0.40;99.90;;;;;;4958489;28;20218;-91
2022/11/27 03:42:31;;;;;;;9.03;4.43;;;0.30;99.90;;;;;;4961417;28;20190;-91
2022/11/27 03:45:46;;;;;;;7.97;4.70;;;0.20;99.90;;;;;;4961547;28;20277;-92
2022/11/27 03:48:54;;;;;;;9.47;4.60;;;0.20;99.90;;;;;;4952792;28;20682;-91
2022/11/27 03:51:44;;;;;;;23.80;9.07;;;0.10;99.90;;;;;;4960692;28;20655;-90
2022/11/27 03:54:22;;;;;;;17.80;8.40;;;0.10;99.90;;;;;;4961410;28;20189;-91
2022/11/27 03:57:00;;;;;;;10.30;5.27;;;0.00;99.90;;;;;;4961846;28;20173;-91
2022/11/27 03:59:33;;;;;;;20.63;6.40;;;0.00;99.90;;;;;;4963048;28;20226;-90
2022/11/27 04:01:59;;;;;;;10.37;5.90;;;;;;;;;;4961613;28;20301;-91
2022/11/27 04:04:35;;;;;;;11.47;6.43;;;0.00;99.90;;;;;;4960721;28;20212;-90
2022/11/27 04:07:01;;;;;;;12.57;4.27;;;;;;;;;;4960577;28;20178;-90
2022/11/27 04:09:27;;;;;;;9.07;4.67;;;;;;;;;;4977699;28;20171;-90
2022/11/27 04:11:53;;;;;;;11.73;7.47;;;;;;;;;;4959984;28;20301;-89
2022/11/27 04:14:19;;;;;;;19.13;6.47;;;;;;;;;;4960754;28;20199;-87
2022/11/27 04:16:51;;;;;;;11.70;5.63;;;-0.10;99.90;;;;;;4960474;28;20183;-91
2022/11/27 04:19:17;;;;;;;17.87;5.03;;;;;;;;;;4960484;28;20213;-91
2022/11/27 04:21:43;;;;;;;3.50;2.93;;;;;;;;;;4960577;28;20186;-90
2022/11/27 04:24:20;;;;;;;13.17;5.73;;;-0.10;99.90;;;;;;4960904;28;20183;-91
2022/11/27 04:26:47;;;;;;;10.17;4.90;;;;;;;;;;4945495;28;20193;-90
2022/11/27 04:29:15;;;;;;;12.23;5.53;;;-0.10;99.90;;;;;;4960715;28;20540;-92
2022/11/27 04:31:41;;;;;;;10.90;4.50;;;;;;;;;;4944567;28;20207;-92
2022/11/27 04:34:20;;;;;;;6.10;3.67;;;-0.10;99.90;;;;;;4960510;28;20220;-91
2022/11/27 04:36:48;;;;;;;14.57;3.97;;;;;;;;;;4960840;28;20181;-91
2022/11/27 04:39:29;;;;;;;13.53;4.40;;;0.00;99.90;;;;;;4961102;28;20179;-91
2022/11/27 04:41:55;;;;;;;13.73;4.37;;;;;;;;;;4967510;28;20171;-89
2022/11/27 04:44:50;;;;;;;;;;;;;;;;;;;;;
2022/11/27 04:47:17;;;;;;;7.90;5.50;;;;;;;;;;5001312;28;20143;-91
2022/11/27 04:50:06;;;;;;;22.37;5.67;;;0.00;99.90;;;;;;4984481;28;20166;-93
2022/11/27 04:52:42;;;;;;;6.00;3.07;;;;;;;;;;4985946;28;20207;-90
2022/11/27 04:55:24;;;;;;;13.47;4.23;;;0.00;99.90;;;;;;4984604;28;20174;-90
2022/11/27 04:58:05;;;;;;;7.20;4.87;;;0.00;99.90;;;;;;4969188;28;20214;-91
2022/11/27 05:00:36;;;;;;;7.13;3.73;;;;;;;;;;4984651;28;20163;-92
2022/11/27 05:03:07;;;;;;;4.93;3.83;;;0.00;99.90;;;;;;4984268;28;20167;-91
2022/11/27 05:05:37;;;;;;;10.00;4.57;;;0.00;99.90;;;;;;5001376;28;20185;-91
2022/11/27 05:08:26;;;;;;;12.83;4.63;;;0.00;99.90;;;;;;4984225;28;20235;-92
2022/11/27 05:11:07;;;;;;;1.77;1.53;;;0.00;99.90;;;;;;4984109;28;20190;-93
2022/11/27 05:14:13;;;;;;;6.87;3.03;;;0.00;99.90;;;;;;4984253;28;20202;-90
2022/11/27 05:16:30;;;;;;;5.33;3.13;;;;;;;;;;4995818;28;20222;-91
2022/11/27 05:22:56;;;;;;;7.83;4.73;;;0.10;99.90;;;;;;4963846;28;20190;-92
2022/11/27 05:25:30;;;;;;;11.80;4.93;;;;;;;;;;4947733;28;20627;-91
2022/11/27 05:28:09;;;;;;;3.67;3.23;;;0.10;99.90;;;;;;4960169;28;20581;-92
2022/11/27 05:31:05;;;;;;;;;;;;;;;;;;;;;
2022/11/27 05:33:48;;;;;;;13.10;4.33;;;0.10;99.90;;;;;;4971902;28;20202;-90
2022/11/27 05:36:32;;;;;;;8.03;4.17;;;;;;;;;;4945244;28;20186;-91
2022/11/27 05:39:37;;;;;;;3.40;3.10;;;0.10;99.90;;;;;;4960535;28;20186;-92
2022/11/27 05:42:17;;;;;;;;;;;;;;;;;;;;;
2022/11/27 05:44:46;;;;;;;11.70;3.60;;;0.10;99.90;;;;;;4977604;28;20167;-90
2022/11/27 05:47:16;;;;;;;2.50;2.37;;;0.00;99.90;;;;;;4960005;28;20553;-91
2022/11/27 05:49:52;;;;;;;;;;;;;;;;;;;;;
2022/11/27 05:52:24;;;;;;;5.23;3.40;;;0.00;99.90;;;;;;4960779;28;20202;-91
2022/11/27 05:54:57;;;;;;;5.63;4.80;;;;;;;;;;4958998;28;20182;-91
2022/11/27 05:57:33;;;;;;;;;;;;;;;;;;;;;
2022/11/27 06:00:01;;;;;;;2.83;2.63;;;;;;;;;;4975844;28;20173;-90
2022/11/27 06:02:47;;;;;;;2.33;2.23;;;0.00;99.90;;;;;;4959087;28;20218;-91
2022/11/27 06:05:32;;;;;;;;;;;;;;;;;;;;;
2022/11/27 06:08:01;;;;;;;9.57;2.80;;;0.00;99.90;;;;;;4975615;28;20455;-90
2022/11/27 06:10:29;;;;;;;2.67;2.37;;;0.00;99.90;;;;;;4958289;28;20207;-89
2022/11/27 06:12:57;;;;;;;8.40;3.13;;;;;;;;;;4958132;28;20649;-92
2022/11/27 06:15:23;;;;;;;10.13;4.53;;;;;;;;;;4958618;28;20275;-90
2022/11/27 06:17:55;;;;;;;6.90;3.27;;;;;;;;;;4958597;28;20182;-92
2022/11/27 06:20:23;;;;;;;4.97;3.70;;;;;;;;;;4958650;28;20187;-90
2022/11/27 06:22:55;;;;;;;3.60;2.63;;;-0.10;99.90;;;;;;4958163;28;20193;-91
2022/11/27 06:25:21;;;;;;;3.70;2.77;;;;;;;;;;4958057;28;20186;-90
2022/11/27 06:28:17;;;;;;;;;;;;;;;;;;;;;
2022/11/27 06:30:53;;;;;;;;;;;;;;;;;;;;;
2022/11/27 06:33:26;;;;;;;2.80;2.50;;;;;;;;;;4978084;28;20182;-91
2022/11/27 06:35:59;;;;;;;1.57;1.57;;;0.00;99.90;;;;;;4975079;28;20188;-90
2022/11/27 06:38:55;;;;;;;3.37;3.00;;;0.00;99.90;;;;;;4964813;28;20179;-90
2022/11/27 06:41:26;;;;;;;2.27;2.17;;;0.00;99.90;;;;;;4964977;28;20186;-90
2022/11/27 06:43:53;;;;;;;2.33;2.23;;;;;;;;;;4976108;28;20178;-90
2022/11/27 06:46:21;;;;;;;2.07;1.87;;;0.10;99.90;;;;;;4975990;28;20233;-89
2022/11/27 06:48:51;;;;;;;2.30;2.13;;;0.10;99.90;;;;;;4964143;28;20174;-90
2022/11/27 06:51:29;;;;;;;6.33;3.63;;;0.10;99.90;;;;;;4976728;28;20201;-88
2022/11/27 06:53:55;;;;;;;3.03;2.73;;;;;;;;;;4963499;28;20195;-89
2022/11/27 06:56:23;;;;;;;9.00;3.27;;;0.20;99.90;;;;;;4993466;28;20220;-88
2022/11/27 06:58:55;;;;;;;5.13;3.27;;;3.50;99.90;;;;;;4993250;28;20229;-91
2022/11/27 07:01:22;;;;;;;6.57;2.83;;;;;;;;;;4976396;28;20307;-88
2022/11/27 07:03:50;;;;;;;2.87;2.23;;;;;;;;;;4993297;28;20598;-91
2022/11/27 07:06:20;;;;;;;3.60;2.70;;;0.10;99.90;;;;;;4961010;28;20304;-90
2022/11/27 07:08:48;;;;;;;4.50;2.37;;;0.20;99.90;;;;;;4977050;28;20184;-90
2022/11/27 07:11:27;;;;;;;4.43;3.03;;;0.20;99.90;;;;;;4974978;28;20193;-91
2022/11/27 07:13:57;;;;;;;3.07;2.87;;;0.30;99.90;;;;;;4964086;28;20182;-90
2022/11/27 07:16:37;;;;;;;4.80;2.57;;;0.20;99.90;;;;;;4967368;28;20189;-94
2022/11/27 07:19:15;;;;;;;2.10;1.70;;;0.20;99.90;;;;;;4960570;28;20193;-94
2022/11/27 07:21:49;;;;;;;6.30;2.87;;;;;;;;;;4974155;28;20181;-92
2022/11/27 07:24:48;;;;;;;4.47;2.47;;;0.30;99.90;;;;;;4977812;28;20182;-93
2022/11/27 07:27:25;;;;;;;2.80;2.60;;;0.30;99.90;;;;;;4963598;28;20189;-92
2022/11/27 07:30:05;;;;;;;4.60;3.00;;;0.30;99.90;;;;;;4954458;28;20222;-92
2022/11/27 07:32:39;;;;;;;3.93;2.50;;;0.40;99.90;;;;;;4968895;28;20232;-90
2022/11/27 07:35:45;;;;;;;4.37;2.07;;;0.40;99.90;;;;;;4950287;28;20664;-92
2022/11/27 07:38:11;;;;;;;2.13;2.00;;;;;;;;;;4970357;28;20277;-88
2022/11/27 07:40:37;;;;;;;7.20;3.37;;;;;;;;;;4970915;28;20198;-90
2022/11/27 07:43:18;;;;;;;;;;;;;;;;;;;;;
2022/11/27 07:46:14;;;;;;;8.40;3.27;;;0.50;99.90;;;;;;4975781;28;20197;-90
2022/11/27 07:48:42;;;;;;;11.03;3.70;;;;;;;;;;4973668;28;20186;-89
2022/11/27 07:51:10;;;;;;;4.37;2.63;;;0.50;99.90;;;;;;4986983;28;20202;-90
2022/11/27 07:53:50;;;;;;;;;;;;;;;;;;;;;
2022/11/27 07:56:20;;;;;;;4.00;2.77;;;0.50;99.90;;;;;;4971842;28;20189;-89
2022/11/27 07:58:56;;;;;;;5.70;3.17;;;0.50;99.90;;;;;;4958808;28;20235;-90
2022/11/27 08:01:24;;;;;;;3.17;2.53;;;0.50;99.90;;;;;;4967517;28;20179;-89
2022/11/27 08:03:51;;;;;;;4.77;4.27;;;;;;;;;;4972041;28;20178;-89
2022/11/27 08:06:29;;;;;;;3.33;2.30;;;0.50;99.90;;;;;;4966903;28;20183;-93
2022/11/27 08:09:11;;;;;;;3.93;3.40;;;0.60;99.90;;;;;;4950376;28;20260;-88
2022/11/27 08:11:38;;;;;;;3.60;2.80;;;0.60;99.90;;;;;;4971466;28;20236;-93
2022/11/27 08:14:22;;;;;;;;;;;;;;;;;;;;;
2022/11/27 08:17:11;;;;;;;6.77;5.07;;;0.60;99.90;;;;;;4990695;28;20685;-92
2022/11/27 08:19:38;;;;;;;2.77;2.53;;;;;;;;;;4976069;28;20639;-91
2022/11/27 08:22:05;;;;;;;8.33;4.27;;;;;;;;;;4996770;28;20188;-91
2022/11/27 08:24:32;;;;;;;9.57;3.33;;;;;;;;;;4976891;28;20189;-93
2022/11/27 08:27:00;;;;;;;5.37;4.80;;;;;;;;;;4978685;28;20189;-93
2022/11/27 08:29:26;;;;;;;11.63;3.53;;;;;;;;;;4970679;28;20242;-92
2022/11/27 08:31:57;;;;;;;3.67;2.80;;;0.80;99.90;;;;;;4970961;28;20678;-92
2022/11/27 08:34:25;;;;;;;6.47;3.07;;;;;;;;;;4944785;28;20194;-91
2022/11/27 08:36:51;;;;;;;8.03;4.27;;;;;;;;;;4976328;28;20336;-90
2022/11/27 08:39:25;;;;;;;3.53;2.90;;;;;;;;;;4979675;28;20264;-91
2022/11/27 08:42:04;;;;;;;9.03;5.30;;;;;;;;;;4980317;28;20271;-90
2022/11/27 08:44:37;;;;;;;4.97;4.53;;;;;;;;;;4974696;28;20182;-89
2022/11/27 08:47:06;;;;;;;6.77;3.77;;;;;;;;;;4973654;28;20182;-90
2022/11/27 08:49:34;;;;;;;12.07;5.03;;;;;;;;;;4971664;28;20186;-90
2022/11/27 08:52:03;;;;;;;7.27;4.80;;;1.10;99.90;;;;;;4968769;28;20289;-90
2022/11/27 08:54:29;;;;;;;12.53;4.27;;;;;;;;;;4971573;28;20189;-89
2022/11/27 08:57:02;;;;;;;3.97;2.43;;;1.20;99.90;;;;;;4972991;28;20653;-90
2022/11/27 08:59:45;;;;;;;7.73;5.47;;;1.10;99.90;;;;;;4958951;28;20773;-90
2022/11/27 09:02:20;;;;;;;5.80;3.33;;;1.00;99.90;;;;;;4961738;28;20186;-91
2022/11/27 09:04:50;;;;;;;8.97;3.20;;;1.10;99.90;;;;;;4951667;28;20202;-88
2022/11/27 09:07:16;;;;;;;6.93;3.27;;;;;;;;;;4975544;28;20207;-89
2022/11/27 09:09:54;;;;;;;5.83;3.40;;;1.00;99.90;;;;;;4974377;28;20242;-89
2022/11/27 09:12:27;;;;;;;8.37;3.63;;;;;;;;;;4950512;28;20206;-89
2022/11/27 09:18:21;;;;;;;4.67;2.73;;;0.90;99.90;;;;;;4970616;28;20204;-94
2022/11/27 09:21:09;;;;;;;6.03;3.57;;;0.90;99.90;;;;;;4969248;28;20186;-94
2022/11/27 09:23:58;;;;;;;2.33;2.17;;;1.00;99.90;;;;;;4943944;28;20191;-92
2022/11/27 09:30:14;;;;;;;3.60;2.77;;;;;;;;;;4965893;28;20669;-92
2022/11/27 09:32:42;;;;;;;2.73;1.73;;;;;;;;;;4975071;28;20215;-89
2022/11/27 09:35:25;;;;;;;;;;;;;;;;;;;;;
2022/11/27 09:37:59;;;;;;;17.20;3.73;;;1.10;99.90;;;;;;4972086;28;20545;-88
2022/11/27 09:40:36;;;;;;;5.30;3.33;;;1.20;99.90;;;;;;4952520;28;20273;-89
2022/11/27 09:43:09;;;;;;;2.27;1.50;;;1.10;99.90;;;;;;4972692;28;20664;-89
2022/11/27 09:45:45;;;;;;;9.57;2.90;;;1.10;99.90;;;;;;4968935;28;20258;-90
2022/11/27 09:48:32;;;;;;;;;;;;;;;;;;;;;
2022/11/27 09:51:21;;;;;;;3.57;2.97;;;1.00;99.90;;;;;;4962338;28;20654;-90
2022/11/27 09:54:11;;;;;;;9.50;4.13;;;1.00;99.90;;;;;;4962406;28;20275;-91
2022/11/27 09:56:51;;;;;;;3.13;2.80;;;1.10;99.90;;;;;;4956065;28;20641;-87
2022/11/27 09:59:22;;;;;;;8.07;4.40;;;1.20;99.90;;;;;;4953214;28;20230;-90
2022/11/27 10:01:54;;;;;;;2.60;2.40;;;1.10;99.90;;;;;;4958342;28;20234;-91
2022/11/27 10:04:43;;;;;;;7.33;3.90;;;1.20;99.90;;;;;;4956606;28;20230;-87
2022/11/27 10:10:16;;;;;;;4.03;3.23;;;1.30;99.90;;;;;;4960138;28;20186;-91
2022/11/27 10:13:15;;;;;;;5.70;4.43;;;1.40;99.90;;;;;;4964693;28;20289;-90
2022/11/27 10:15:57;;;;;;;9.07;3.27;;;1.40;99.90;;;;;;4966274;28;20647;-91
2022/11/27 10:18:57;;;;;;;16.00;4.83;;;1.50;99.90;;;;;;4957768;28;20190;-90
2022/11/27 10:22:09;;;;;;;7.20;4.10;;;1.50;99.90;;;;;;4961193;28;20220;-90
2022/11/27 10:25:12;;;;;;;;;;;;;;;;;;;;;
2022/11/27 10:28:02;;;;;;;4.33;4.00;;;1.50;99.90;;;;;;4963048;28;20177;-90
2022/11/27 10:30:36;;;;;;;5.83;4.37;;;1.50;99.90;;;;;;4953042;28;20186;-90
2022/11/27 10:33:34;;;;;;;7.70;4.50;;;1.60;99.90;;;;;;4964899;28;20195;-90
2022/11/27 10:36:00;;;;;;;13.97;3.50;;;;;;;;;;4964568;28;20176;-88
2022/11/27 10:38:57;;;;;;;6.00;3.93;;;1.40;99.90;;;;;;4961121;28;20249;-89
2022/11/27 10:41:54;;;;;;;7.60;3.20;;;1.30;99.90;;;;;;4968064;28;20178;-91
2022/11/27 10:47:47;;;;;;;6.63;4.27;;;1.20;99.90;;;;;;4958170;28;20699;-91
2022/11/27 10:50:35;;;;;;;8.83;4.17;;;1.20;99.90;;;;;;4956348;28;20193;-90
2022/11/27 10:54:08;;;;;;;;;;;;;;;;;;;;;
2022/11/27 10:56:38;;;;;;;5.50;4.07;;;;;;;;;;4926879;29;20191;-89
2022/11/27 10:59:29;;;;;;;11.10;6.00;;;1.20;99.90;;;;;;4927198;29;20232;-89
2022/11/27 11:01:57;;;;;;;7.20;3.07;;;;;;;;;;4960831;28;20199;-91
2022/11/27 11:04:29;;;;;;;3.93;3.13;;;1.30;99.90;;;;;;4977758;28;20227;-95
2022/11/27 11:07:00;;;;;;;3.83;3.47;;;1.40;99.90;;;;;;4989354;28;20235;-93
2022/11/27 11:13:30;;;;;;;9.13;4.03;;;1.40;99.90;;;;;;4989135;28;21403;-92
2022/11/27 11:16:31;;;;;;;;;;;;;;;;;;;;;
2022/11/27 11:19:08;;;;;;;;;;;;;;;;;;;;;
2022/11/27 11:21:45;;;;;;;5.60;2.83;;;1.50;99.90;;;;;;4989579;28;20182;-93
2022/11/27 11:24:22;;;;;;;3.97;3.53;;;1.50;99.90;;;;;;4986760;28;20195;-91
2022/11/27 11:26:58;;;;;;;10.63;5.00;;;1.40;99.90;;;;;;4986490;28;20158;-93
2022/11/27 11:30:38;;;;;;;;;;;;;;;;;;;;;
2022/11/27 11:33:21;;;;;;;6.10;3.73;;;1.40;99.90;;;;;;4932074;28;20206;-94
2022/11/27 11:36:18;;;;;;;;;;;;;;;;;;;;;
2022/11/27 11:38:51;;;;;;;6.33;4.17;;;1.40;99.90;;;;;;4965451;28;20703;-90
2022/11/27 11:41:20;;;;;;;2.93;2.50;;;;;;;;;;4968178;28;20194;-91
2022/11/27 11:44:12;;;;;;;;;;;;;;;;;;;;;
2022/11/27 11:46:59;;;;;;;3.90;3.33;;;1.30;99.90;;;;;;4964923;28;20183;-90
2022/11/27 11:49:50;;;;;;;2.77;2.33;;;1.40;99.90;;;;;;4935822;28;20191;-88
2022/11/27 11:52:51;;;;;;;11.70;3.40;;;1.40;99.90;;;;;;4960524;28;20253;-91
2022/11/27 11:55:30;;;;;;;7.87;4.87;;;1.30;99.90;;;;;;4941465;28;20206;-91
2022/11/27 11:58:13;;;;;;;12.00;4.80;;;1.40;99.90;;;;;;4966409;28;20178;-92
2022/11/27 12:01:03;;;;;;;10.93;4.93;;;1.30;99.90;;;;;;4970870;28;20215;-92
2022/11/27 12:07:46;;;;;;;6.97;4.07;;;1.30;99.90;;;;;;4963098;28;20202;-89
2022/11/27 12:10:31;;;;;;;3.47;3.13;;;1.40;99.90;;;;;;4965374;28;20182;-88
2022/11/27 12:13:42;;;;;;;7.70;4.30;;;1.40;99.90;;;;;;4969774;28;20222;-89
2022/11/27 12:16:38;;;;;;;8.63;3.30;;;1.40;99.90;;;;;;4968889;28;20191;-89
2022/11/27 12:19:51;;;;;;;3.50;2.97;;;1.40;99.90;;;;;;4940224;28;20191;-89
2022/11/27 12:22:35;;;;;;;5.83;2.87;;;1.40;99.90;;;;;;4946953;28;20202;-88
2022/11/27 12:25:38;;;;;;;8.20;4.07;;;1.30;99.90;;;;;;4980745;28;20341;-89
2022/11/27 12:28:50;;;;;;;5.17;3.47;;;1.40;99.90;;;;;;4973796;28;20194;-91
2022/11/27 12:38:31;;;;;;;6.33;3.73;;;1.30;99.90;;;;;;4915561;29;20288;-89
2022/11/27 12:40:57;;;;;;;7.50;3.33;;;;;;;;;;4946022;28;20206;-91
2022/11/27 12:43:30;;;;;;;5.63;3.63;;;3.80;99.90;;;;;;4959179;28;20187;-91
2022/11/27 12:46:05;;;;;;;3.67;2.63;;;1.30;99.90;;;;;;4972537;28;20718;-87
2022/11/27 12:48:37;;;;;;;7.10;3.27;;;1.40;99.90;;;;;;4970345;28;20170;-86
2022/11/27 12:51:25;;;;;;;6.17;2.93;;;1.40;99.90;;;;;;4976374;28;20277;-86
2022/11/27 12:53:51;;;;;;;4.30;3.90;;;;;;;;;;4972398;28;20179;-88
2022/11/27 12:56:56;;;;;;;3.80;3.40;;;1.50;99.90;;;;;;4964124;28;20186;-87
2022/11/27 12:59:42;;;;;;;8.43;3.63;;;1.60;99.90;;;;;;4924305;28;20326;-88
2022/11/27 13:02:45;;;;;;;10.00;4.00;;;1.60;99.90;;;;;;4965350;28;20227;-90
2022/11/27 13:05:21;;;;;;;4.20;3.80;;;1.60;99.90;;;;;;4963537;28;20539;-92
2022/11/27 13:08:28;;;;;;;3.00;2.77;;;1.60;99.90;;;;;;4963810;28;20233;-95
2022/11/27 13:11:14;;;;;;;10.53;4.00;;;1.50;99.90;;;;;;4966355;28;20277;-90
2022/11/27 13:14:12;;;;;;;4.27;3.93;;;1.60;99.90;;;;;;4962663;28;20206;-91
2022/11/27 13:17:04;;;;;;;3.03;2.77;;;1.60;99.90;;;;;;4974839;28;20174;-89
2022/11/27 13:23:30;;;;;;;4.40;3.47;;;1.50;99.90;;;;;;4963764;28;20283;-91
2022/11/27 13:27:07;;;;;;;4.43;3.40;;;1.50;99.90;;;;;;4969457;28;20334;-91
2022/11/27 13:30:05;;;;;;;5.77;3.73;;;1.50;99.90;;;;;;4961133;28;20191;-90
2022/11/27 13:35:31;;;;;;;6.43;4.20;;;;;;;;;;4961317;28;20187;-89
2022/11/27 13:38:32;;;;;;;18.93;3.73;;;1.40;99.90;;;;;;4979925;28;20175;-91
2022/11/27 13:41:22;;;;;;;6.97;3.97;;;1.40;99.90;;;;;;4985331;28;20183;-93
2022/11/27 13:43:49;;;;;;;6.70;5.73;;;;;;;;;;4972131;28;20231;-92
2022/11/27 13:49:59;;;;;;;6.47;4.40;;;1.40;99.90;;;;;;4965909;28;20237;-90
2022/11/27 13:52:26;;;;;;;5.37;2.57;;;;;;;;;;4926768;28;20216;-88
2022/11/27 13:55:08;;;;;;;9.53;5.27;;;1.30;99.90;;;;;;4963819;28;20190;-93
2022/11/27 13:57:37;;;;;;;16.60;4.97;;;;;;;;;;4964522;28;20178;-90
2022/11/27 14:00:10;;;;;;;12.23;5.00;;;1.30;99.90;;;;;;4961581;28;20224;-87
2022/11/27 14:02:52;;;;;;;6.43;3.63;;;1.30;99.90;;;;;;4962130;28;20531;-88
2022/11/27 14:08:33;;;;;;;;;;;;;;;;;;;;;
2022/11/27 14:11:07;;;;;;;8.50;3.87;;;1.30;99.90;;;;;;4965077;28;20530;-91
2022/11/27 14:13:55;;;;;;;19.30;5.23;;;1.30;99.90;;;;;;4958761;28;20246;-91
2022/11/27 14:16:41;;;;;;;9.53;4.27;;;1.30;99.90;;;;;;4963319;28;20182;-90
2022/11/27 14:19:29;;;;;;;9.00;5.07;;;1.30;99.90;;;;;;4967628;28;20189;-88
2022/11/27 14:22:31;;;;;;;5.43;4.07;;;1.40;99.90;;;;;;4965788;28;20621;-91
2022/11/27 14:25:05;;;;;;;6.77;3.17;;;;;;;;;;4965720;28;20206;-87
2022/11/27 14:27:44;;;;;;;11.03;3.53;;;1.40;99.90;;;;;;4957923;28;20182;-88
2022/11/27 14:30:40;;;;;;;3.93;3.37;;;1.40;99.90;;;;;;4942639;28;20194;-88
2022/11/27 14:33:30;;;;;;;4.63;3.20;;;1.40;99.90;;;;;;4953440;28;20218;-91
2022/11/27 14:36:20;;;;;;;3.60;3.20;;;1.30;99.90;;;;;;4947487;28;20190;-89
2022/11/27 14:41:35;;;;;;;21.63;8.37;;;;;;;;;;4951139;28;20208;-88
2022/11/27 14:44:06;;;;;;;13.57;6.73;;;1.50;99.90;;;;;;4960858;28;20202;-90
2022/11/27 14:46:48;;;;;;;;;;;;;;;;;;;;;
2022/11/27 14:49:36;;;;;;;;;;;;;;;;;;;;;
2022/11/27 14:52:24;;;;;;;21.47;8.17;;;1.40;99.90;;;;;;4972844;28;20204;-89
2022/11/27 14:54:54;;;;;;;25.48;12.15;;;;;;;;;;4957556;28;20446;-90
2022/11/27 14:57:31;;;;;;;18.17;9.70;;;1.40;99.90;;;;;;4966245;28;20586;-93
2022/11/27 15:00:19;;;;;;;16.10;7.90;;;1.40;99.90;;;;;;4989987;28;20213;-89
2022/11/27 15:02:51;;;;;;;13.43;7.03;;;1.30;99.90;;;;;;4970605;28;20244;-90
2022/11/27 15:05:33;;;;;;;12.10;8.13;;;1.40;99.90;;;;;;4973820;28;20186;-89
2022/11/27 15:08:02;;;;;;;12.47;9.03;;;1.30;99.90;;;;;;4990132;28;20253;-90
2022/11/27 15:10:29;;;;;;;9.57;7.47;;;;;;;;;;4969218;28;20206;-88
2022/11/27 15:12:57;;;;;;;15.17;8.40;;;1.30;99.90;;;;;;4973119;28;20210;-89
2022/11/27 15:15:58;;;;;;;13.27;6.83;;;1.30;99.90;;;;;;4972439;28;20178;-89
2022/11/27 15:18:30;;;;;;;12.63;7.50;;;1.30;99.90;;;;;;4983441;28;20203;-91
2022/11/27 15:21:06;;;;;;;14.47;7.73;;;1.20;99.90;;;;;;4974177;28;20228;-91
2022/11/27 15:23:56;;;;;;;16.67;9.97;;;1.20;99.90;;;;;;4951662;28;20201;-90
2022/11/27 15:26:39;;;;;;;22.27;9.93;;;1.30;99.90;;;;;;4945729;28;20206;-89
2022/11/27 15:30:08;;;;;;;60.37;24.07;;;1.30;99.90;;;;;;4970409;28;20224;-90
2022/11/27 15:32:50;;;;;;;22.50;15.07;;;1.30;99.90;;;;;;4908685;29;20271;-89
2022/11/27 15:35:34;;;;;;;26.03;11.60;;;1.40;99.90;;;;;;4909860;29;20657;-89
2022/11/27 15:38:09;;;;;;;22.57;10.47;;;1.30;99.90;;;;;;4975513;28;20186;-90
2022/11/27 15:44:20;;;;;;;42.23;14.60;;;1.30;99.90;;;;;;4955767;28;20252;-93
2022/11/27 15:46:49;;;;;;;76.53;30.15;;;;;;;;;;4953324;28;20444;-90
2022/11/27 15:49:22;;;;;;;99.50;28.97;;;1.40;99.90;;;;;;4976555;28;20247;-91
2022/11/27 15:51:49;;;;;;;51.07;19.37;;;;;;;;;;4973688;28;20281;-90
2022/11/27 15:54:18;;;;;;;42.53;21.60;;;1.40;99.90;;;;;;4972404;28;20259;-89
2022/11/27 15:56:50;;;;;;;31.77;16.43;;;1.40;99.90;;;;;;4967336;28;20207;-90